Ashville, Canada
Current Conditions -  °F | °C
As of 7:00 PM on Tuesday 21 Oct 2014 (Local Time) from CYDN Reporting Station
Clear Clear  
Wind Chill: 57°   Ceiling: Unl
Heat Index: 57°   Visibility: 9mi
Dew Point: 43°   Wind: 14mph
Humidity: 59%   Direction: 130°SE
Pressure: 29.67"   Gusts: NA
Location:  51.18°N, 100.3°W
Report Text: CYDN 220000Z AUTO 13012KT 9SM CLR 14/06 A2967 RMK SLP052 DENSITY ALT 1300FT
Loading
Personal Weather Stations






























Interactive Weather Map
Tropical Storm Tracking
New forecast layout! Learn more

10-Day Weather Forecast

Advertisements
Track Severe Weather on mobile